Check out our new PWSWeather beta!
PWSweather.com
Personal Weather Stations
Station Observations
KPLY111
14 Baltic Ave., Plymouth, MA 02360

14 Baltic Ave.Plymouth, MA 02360

Lat: 41.94, Lon: -70.66

Elevation: 110

Station Type: Davis Vantage Pro Plus 2

http://johnsweather.com/

High Low Average
Temperature 78.0°F25.6°C 70.9°F21.6°C 73.7°F23.2°C
Dew Point 72.0°F22.2°C 65.0°F18.3°C 68.8°F20.4°C
Winds 6.0 mph 9.7 kmh Calm Calm 1.0 mph SSE1.6 kmh SSE
Wind Gusts 11.0 mph17.7 kmh -- 3.0 mph4.8 kmh
Humidity 89% 79% 85%
Pressure 29.77 in1008.1 mb 29.61 in1002.7 mb -
Precipitation 5.73 in145.5 mm - -
Hour Temp Dew Point Humidity Winds Wind Gusts Pressure Precip Precip Rate Daily Precip Total
12:00 AM 72.2°F22.3°C 65.0°F18.3°C 79% 1.0 mph S1.6 kmh S 7.0 mph11.3 kmh 29.77 in1008.1 mb 0.00 in0.0 mm 0.00 in0.0 mm 0.00 in0.0 mm
12:05 AM 72.3°F22.4°C 65.0°F18.3°C 79% 1.0 mph S1.6 kmh S 7.0 mph11.3 kmh 29.77 in1008.1 mb 0.00 in0.0 mm 0.00 in0.0 mm 0.00 in0.0 mm
12:10 AM 72.3°F22.4°C 65.0°F18.3°C 79% 4.0 mph SE6.4 kmh SE 7.0 mph11.3 kmh 29.77 in1008.1 mb 0.00 in0.0 mm 0.00 in0.0 mm 0.00 in0.0 mm
12:15 AM 72.4°F22.4°C 66.0°F18.9°C 79% 1.0 mph SW1.6 kmh SW 7.0 mph11.3 kmh 29.77 in1008.1 mb 0.00 in0.0 mm 0.00 in0.0 mm 0.00 in0.0 mm
12:20 AM 72.4°F22.4°C 66.0°F18.9°C 79% 5.0 mph ESE8.0 kmh ESE 7.0 mph11.3 kmh 29.77 in1008.1 mb 0.00 in0.0 mm 0.00 in0.0 mm 0.00 in0.0 mm
12:25 AM 72.5°F22.5°C 66.0°F18.9°C 79% 4.0 mph S6.4 kmh S 9.0 mph14.5 kmh 29.77 in1008.1 mb 0.00 in0.0 mm 0.00 in0.0 mm 0.00 in0.0 mm
12:30 AM 72.6°F22.6°C 66.0°F18.9°C 80% 2.0 mph S3.2 kmh S 9.0 mph14.5 kmh 29.76 in1007.8 mb 0.00 in0.0 mm 0.00 in0.0 mm 0.00 in0.0 mm
12:35 AM 72.7°F22.6°C 66.0°F18.9°C 80% 1.0 mph S1.6 kmh S 9.0 mph14.5 kmh 29.76 in1007.8 mb 0.00 in0.0 mm 0.00 in0.0 mm 0.00 in0.0 mm
12:40 AM 72.8°F22.7°C 66.0°F18.9°C 80% 2.0 mph S3.2 kmh S 5.0 mph8.0 kmh 29.75 in1007.5 mb 0.00 in0.0 mm 0.00 in0.0 mm 0.00 in0.0 mm
12:45 AM 72.8°F22.7°C 66.0°F18.9°C 80% Calm Calm 6.0 mph9.7 kmh 29.75 in1007.5 mb 0.00 in0.0 mm 0.00 in0.0 mm 0.00 in0.0 mm
12:50 AM 73.0°F22.8°C 67.0°F19.4°C 80% 3.0 mph SSE4.8 kmh SSE 6.0 mph9.7 kmh 29.75 in1007.5 mb 0.00 in0.0 mm 0.00 in0.0 mm 0.00 in0.0 mm
12:55 AM 73.1°F22.8°C 67.0°F19.4°C 81% 4.0 mph SSE6.4 kmh SSE 7.0 mph11.3 kmh 29.75 in1007.5 mb 0.00 in0.0 mm 0.00 in0.0 mm 0.00 in0.0 mm
01:00 AM 73.3°F22.9°C 67.0°F19.4°C 81% 1.0 mph S1.6 kmh S 7.0 mph11.3 kmh 29.75 in1007.5 mb 0.00 in0.0 mm 0.00 in0.0 mm 0.00 in0.0 mm
01:05 AM 73.4°F23.0°C 67.0°F19.4°C 81% 1.0 mph SW1.6 kmh SW 7.0 mph11.3 kmh 29.75 in1007.5 mb 0.00 in0.0 mm 0.00 in0.0 mm 0.00 in0.0 mm
01:10 AM 73.5°F23.1°C 67.0°F19.4°C 81% 5.0 mph SSE8.0 kmh SSE 7.0 mph11.3 kmh 29.75 in1007.5 mb 0.00 in0.0 mm 0.00 in0.0 mm 0.00 in0.0 mm
01:15 AM 73.7°F23.2°C 68.0°F20.0°C 81% 1.0 mph ESE1.6 kmh ESE 7.0 mph11.3 kmh 29.74 in1007.1 mb 0.00 in0.0 mm 0.00 in0.0 mm 0.00 in0.0 mm
01:20 AM 73.9°F23.3°C 68.0°F20.0°C 81% 2.0 mph S3.2 kmh S 8.0 mph12.9 kmh 29.74 in1007.1 mb 0.00 in0.0 mm 0.00 in0.0 mm 0.00 in0.0 mm
01:25 AM 74.0°F23.3°C 68.0°F20.0°C 82% Calm Calm 8.0 mph12.9 kmh 29.74 in1007.1 mb 0.00 in0.0 mm 0.00 in0.0 mm 0.00 in0.0 mm
01:30 AM 74.0°F23.3°C 68.0°F20.0°C 82% 5.0 mph WSW8.0 kmh WSW 7.0 mph11.3 kmh 29.73 in1006.8 mb 0.00 in0.0 mm 0.00 in0.0 mm 0.01 in0.3 mm
01:35 AM 74.1°F23.4°C 68.0°F20.0°C 82% Calm Calm 7.0 mph11.3 kmh 29.73 in1006.8 mb 0.11 in2.8 mm 1.32 in33.5 mm 0.02 in0.5 mm
01:40 AM 74.1°F23.4°C 68.0°F20.0°C 82% 2.0 mph S3.2 kmh S 6.0 mph9.7 kmh 29.73 in1006.8 mb 0.11 in2.8 mm 0.00 in0.0 mm 0.03 in0.8 mm
01:45 AM 74.1°F23.4°C 69.0°F20.6°C 83% 2.0 mph SSE3.2 kmh SSE 7.0 mph11.3 kmh 29.73 in1006.8 mb 0.07 in1.8 mm 0.00 in0.0 mm 0.03 in0.8 mm
01:50 AM 74.1°F23.4°C 69.0°F20.6°C 83% Calm Calm 7.0 mph11.3 kmh 29.72 in1006.4 mb 0.05 in1.3 mm 0.00 in0.0 mm 0.03 in0.8 mm
01:55 AM 74.1°F23.4°C 69.0°F20.6°C 83% 2.0 mph SE3.2 kmh SE 5.0 mph8.0 kmh 29.72 in1006.4 mb 0.00 in0.0 mm 0.00 in0.0 mm 0.03 in0.8 mm
02:00 AM 74.1°F23.4°C 69.0°F20.6°C 83% Calm Calm 5.0 mph8.0 kmh 29.72 in1006.4 mb 0.00 in0.0 mm 0.00 in0.0 mm 0.04 in1.0 mm
02:05 AM 74.0°F23.3°C 69.0°F20.6°C 83% 1.0 mph WSW1.6 kmh WSW 9.0 mph14.5 kmh 29.72 in1006.4 mb 0.00 in0.0 mm 0.00 in0.0 mm 0.04 in1.0 mm
02:10 AM 74.0°F23.3°C 69.0°F20.6°C 83% 1.0 mph SW1.6 kmh SW 9.0 mph14.5 kmh 29.71 in1006.1 mb 1.12 in28.4 mm 13.44 in341.4 mm 0.11 in2.8 mm
02:15 AM 74.0°F23.3°C 69.0°F20.6°C 83% Calm Calm 9.0 mph14.5 kmh 29.71 in1006.1 mb 0.31 in7.9 mm 0.00 in0.0 mm 0.14 in3.6 mm
02:20 AM 74.0°F23.3°C 69.0°F20.6°C 83% Calm Calm 5.0 mph8.0 kmh 29.71 in1006.1 mb 1.65 in41.9 mm 16.08 in408.4 mm 0.19 in4.8 mm
02:25 AM 74.0°F23.3°C 69.0°F20.6°C 84% 2.0 mph SE3.2 kmh SE 4.0 mph6.4 kmh 29.70 in1005.8 mb 2.64 in67.1 mm 11.88 in301.8 mm 0.29 in7.4 mm
02:30 AM 74.1°F23.4°C 69.0°F20.6°C 84% Calm Calm 5.0 mph8.0 kmh 29.70 in1005.8 mb 0.39 in9.9 mm 0.00 in0.0 mm 0.40 in10.2 mm
02:35 AM 74.1°F23.4°C 69.0°F20.6°C 84% Calm Calm 5.0 mph8.0 kmh 29.70 in1005.8 mb 0.93 in23.6 mm 6.48 in164.6 mm 0.44 in11.2 mm
02:40 AM 74.1°F23.4°C 69.0°F20.6°C 84% 4.0 mph SSW6.4 kmh SSW 8.0 mph12.9 kmh 29.70 in1005.8 mb 0.43 in10.9 mm 0.00 in0.0 mm 0.48 in12.2 mm
02:45 AM 74.2°F23.4°C 69.0°F20.6°C 84% Calm Calm 8.0 mph12.9 kmh 29.70 in1005.8 mb 0.19 in4.8 mm 0.00 in0.0 mm 0.50 in12.7 mm
02:50 AM 74.2°F23.4°C 70.0°F21.1°C 85% 2.0 mph SSW3.2 kmh SSW 8.0 mph12.9 kmh 29.70 in1005.8 mb 0.47 in11.9 mm 3.36 in85.3 mm 0.52 in13.2 mm
02:55 AM 74.3°F23.5°C 70.0°F21.1°C 85% 1.0 mph SSE1.6 kmh SSE 6.0 mph9.7 kmh 29.69 in1005.4 mb 0.35 in8.9 mm 0.00 in0.0 mm 0.58 in14.7 mm
03:00 AM 74.4°F23.6°C 70.0°F21.1°C 85% 1.0 mph S1.6 kmh S 9.0 mph14.5 kmh 29.69 in1005.4 mb 0.38 in9.7 mm 0.03 in0.8 mm 0.62 in15.7 mm
03:05 AM 74.4°F23.6°C 70.0°F21.1°C 85% 2.0 mph S3.2 kmh S 9.0 mph14.5 kmh 29.69 in1005.4 mb 0.34 in8.6 mm 0.00 in0.0 mm 0.65 in16.5 mm
03:10 AM 74.5°F23.6°C 70.0°F21.1°C 85% 1.0 mph S1.6 kmh S 7.0 mph11.3 kmh 29.69 in1005.4 mb 0.32 in8.1 mm 0.00 in0.0 mm 0.68 in17.3 mm
03:15 AM 74.5°F23.6°C 70.0°F21.1°C 85% 1.0 mph WSW1.6 kmh WSW 5.0 mph8.0 kmh 29.69 in1005.4 mb 1.79 in45.5 mm 17.64 in448.1 mm 0.74 in18.8 mm
03:20 AM 74.4°F23.6°C 70.0°F21.1°C 85% 5.0 mph S8.0 kmh S 8.0 mph12.9 kmh 29.69 in1005.4 mb 0.89 in22.6 mm 0.00 in0.0 mm 0.84 in21.3 mm
03:25 AM 74.6°F23.7°C 70.0°F21.1°C 85% 2.0 mph S3.2 kmh S 9.0 mph14.5 kmh 29.69 in1005.4 mb 0.30 in7.6 mm 0.00 in0.0 mm 0.87 in22.1 mm
03:30 AM 74.6°F23.7°C 70.0°F21.1°C 85% Calm Calm 9.0 mph14.5 kmh 29.68 in1005.1 mb 0.51 in13.0 mm 2.52 in64.0 mm 0.90 in22.9 mm
03:35 AM 74.6°F23.7°C 70.0°F21.1°C 85% Calm Calm 6.0 mph9.7 kmh 29.68 in1005.1 mb 0.93 in23.6 mm 5.04 in128.0 mm 0.94 in23.9 mm
03:40 AM 74.5°F23.6°C 70.0°F21.1°C 86% Calm Calm 4.0 mph6.4 kmh 29.68 in1005.1 mb 0.79 in20.1 mm 0.00 in0.0 mm 1.02 in25.9 mm
03:45 AM 74.5°F23.6°C 70.0°F21.1°C 86% Calm Calm 5.0 mph8.0 kmh 29.67 in1004.7 mb 1.45 in36.8 mm 7.92 in201.2 mm 1.19 in30.2 mm
03:50 AM 74.4°F23.6°C 70.0°F21.1°C 86% 4.0 mph NNE6.4 kmh NNE 5.0 mph8.0 kmh 29.66 in1004.4 mb 0.86 in21.8 mm 0.00 in0.0 mm 1.37 in34.8 mm
03:55 AM 74.3°F23.5°C 70.0°F21.1°C 86% 4.0 mph S6.4 kmh S 6.0 mph9.7 kmh 29.67 in1004.7 mb 2.57 in65.3 mm 20.52 in521.2 mm 1.55 in39.4 mm
04:00 AM 74.2°F23.4°C 70.0°F21.1°C 86% 4.0 mph WSW6.4 kmh WSW 7.0 mph11.3 kmh 29.68 in1005.1 mb 4.76 in120.9 mm 2.39 in60.7 mm 1.79 in45.5 mm
04:05 AM 74.0°F23.3°C 70.0°F21.1°C 86% 2.0 mph SW3.2 kmh SW 11.0 mph17.7 kmh 29.67 in1004.7 mb 4.09 in103.9 mm 0.00 in0.0 mm 2.08 in52.8 mm
04:10 AM 73.8°F23.2°C 69.0°F20.6°C 86% 6.0 mph SSW9.7 kmh SSW 11.0 mph17.7 kmh 29.67 in1004.7 mb 1.93 in49.0 mm 0.00 in0.0 mm 2.31 in58.7 mm
04:15 AM 73.5°F23.1°C 69.0°F20.6°C 86% 5.0 mph SE8.0 kmh SE 10.0 mph16.1 kmh 29.66 in1004.4 mb 2.17 in55.1 mm 2.88 in73.2 mm 2.43 in61.7 mm
04:20 AM 73.5°F23.1°C 69.0°F20.6°C 86% 2.0 mph S3.2 kmh S 10.0 mph16.1 kmh 29.65 in1004.1 mb 0.27 in6.9 mm 0.00 in0.0 mm 2.45 in62.2 mm
04:25 AM 73.6°F23.1°C 69.0°F20.6°C 86% 1.0 mph SW1.6 kmh SW 10.0 mph16.1 kmh 29.66 in1004.4 mb 1.50 in38.1 mm 14.76 in374.9 mm 2.55 in64.8 mm
04:30 AM 73.7°F23.2°C 69.0°F20.6°C 86% 1.0 mph SW1.6 kmh SW 9.0 mph14.5 kmh 29.66 in1004.4 mb 1.13 in28.7 mm 0.00 in0.0 mm 2.58 in65.5 mm
04:35 AM 73.8°F23.2°C 69.0°F20.6°C 86% 4.0 mph NNW6.4 kmh NNW 9.0 mph14.5 kmh 29.66 in1004.4 mb 1.28 in32.5 mm 1.80 in45.7 mm 2.62 in66.5 mm
04:40 AM 73.9°F23.3°C 70.0°F21.1°C 86% 1.0 mph SW1.6 kmh SW 7.0 mph11.3 kmh 29.66 in1004.4 mb 0.18 in4.6 mm 0.00 in0.0 mm 2.64 in67.1 mm
04:45 AM 73.9°F23.3°C 70.0°F21.1°C 86% Calm Calm 5.0 mph8.0 kmh 29.66 in1004.4 mb 0.10 in2.5 mm 0.00 in0.0 mm 2.65 in67.3 mm
04:50 AM 73.8°F23.2°C 69.0°F20.6°C 86% Calm Calm 2.0 mph3.2 kmh 29.66 in1004.4 mb 0.47 in11.9 mm 4.44 in112.8 mm 2.68 in68.1 mm
04:55 AM 73.7°F23.2°C 69.0°F20.6°C 86% Calm Calm 2.0 mph3.2 kmh 29.67 in1004.7 mb 3.79 in96.3 mm 39.84 in1011.9 mm 2.84 in72.1 mm
05:00 AM 73.5°F23.1°C 69.0°F20.6°C 86% 1.0 mph N1.6 kmh N 2.0 mph3.2 kmh 29.66 in1004.4 mb 2.52 in64.0 mm 0.00 in0.0 mm 3.11 in79.0 mm
05:05 AM 73.4°F23.0°C 69.0°F20.6°C 86% Calm Calm 2.0 mph3.2 kmh 29.66 in1004.4 mb 2.91 in73.9 mm 4.68 in118.9 mm 3.32 in84.3 mm
05:10 AM 73.2°F22.9°C 69.0°F20.6°C 86% Calm Calm 2.0 mph3.2 kmh 29.66 in1004.4 mb 2.52 in64.0 mm 0.00 in0.0 mm 3.52 in89.4 mm
05:15 AM 73.1°F22.8°C 69.0°F20.6°C 86% Calm Calm 2.0 mph3.2 kmh 29.66 in1004.4 mb 3.11 in79.0 mm 7.08 in179.8 mm 3.70 in94.0 mm
05:20 AM 72.9°F22.7°C 69.0°F20.6°C 86% Calm Calm 2.0 mph3.2 kmh 29.67 in1004.7 mb 0.39 in9.9 mm 0.00 in0.0 mm 3.79 in96.3 mm
05:25 AM 72.8°F22.7°C 68.0°F20.0°C 86% Calm Calm 1.0 mph1.6 kmh 29.67 in1004.7 mb 2.13 in54.1 mm 20.88 in530.4 mm 3.90 in99.1 mm
05:30 AM 72.7°F22.6°C 68.0°F20.0°C 86% 1.0 mph N1.6 kmh N 1.0 mph1.6 kmh 29.67 in1004.7 mb 2.26 in57.4 mm 1.56 in39.6 mm 4.05 in102.9 mm
05:35 AM 72.7°F22.6°C 68.0°F20.0°C 86% 2.0 mph N3.2 kmh N 2.0 mph3.2 kmh 29.65 in1004.1 mb 1.68 in42.7 mm 0.00 in0.0 mm 4.21 in106.9 mm
05:40 AM 72.6°F22.6°C 68.0°F20.0°C 86% Calm Calm 2.0 mph3.2 kmh 29.66 in1004.4 mb 1.93 in49.0 mm 3.00 in76.2 mm 4.40 in111.8 mm
05:45 AM 72.5°F22.5°C 68.0°F20.0°C 86% Calm Calm 2.0 mph3.2 kmh 29.66 in1004.4 mb 2.06 in52.3 mm 1.56 in39.6 mm 4.52 in114.8 mm
05:50 AM 72.4°F22.4°C 68.0°F20.0°C 86% Calm Calm 2.0 mph3.2 kmh 29.66 in1004.4 mb 1.30 in33.0 mm 0.00 in0.0 mm 4.68 in118.9 mm
05:55 AM 72.4°F22.4°C 68.0°F20.0°C 86% Calm Calm 1.0 mph1.6 kmh 29.67 in1004.7 mb 2.12 in53.8 mm 9.84 in249.9 mm 4.74 in120.4 mm
06:00 AM 72.4°F22.4°C 68.0°F20.0°C 86% 1.0 mph N1.6 kmh N 2.0 mph3.2 kmh 29.67 in1004.7 mb 0.74 in18.8 mm 0.00 in0.0 mm 4.84 in122.9 mm
06:05 AM 72.2°F22.3°C 68.0°F20.0°C 86% 1.0 mph N1.6 kmh N 2.0 mph3.2 kmh 29.66 in1004.4 mb 0.72 in18.3 mm 0.00 in0.0 mm 4.97 in126.2 mm
06:10 AM 72.2°F22.3°C 68.0°F20.0°C 86% Calm Calm 2.0 mph3.2 kmh 29.66 in1004.4 mb 0.94 in23.9 mm 2.64 in67.1 mm 5.08 in129.0 mm
06:15 AM 72.1°F22.3°C 68.0°F20.0°C 86% Calm Calm 2.0 mph3.2 kmh 29.66 in1004.4 mb 1.43 in36.3 mm 5.88 in149.4 mm 5.16 in131.1 mm
06:20 AM 72.0°F22.2°C 68.0°F20.0°C 87% Calm Calm 2.0 mph3.2 kmh 29.66 in1004.4 mb 1.11 in28.2 mm 0.00 in0.0 mm 5.27 in133.9 mm
06:25 AM 72.0°F22.2°C 68.0°F20.0°C 87% Calm Calm 2.0 mph3.2 kmh 29.66 in1004.4 mb 0.56 in14.2 mm 0.00 in0.0 mm 5.34 in135.6 mm
06:30 AM 72.1°F22.3°C 68.0°F20.0°C 87% Calm Calm 1.0 mph1.6 kmh 29.66 in1004.4 mb 2.38 in60.5 mm 21.84 in554.7 mm 5.44 in138.2 mm
06:35 AM 72.0°F22.2°C 68.0°F20.0°C 87% 1.0 mph N1.6 kmh N 1.0 mph1.6 kmh 29.66 in1004.4 mb 0.76 in19.3 mm 0.00 in0.0 mm 5.54 in140.7 mm
06:40 AM 72.1°F22.3°C 68.0°F20.0°C 87% Calm Calm 4.0 mph6.4 kmh 29.66 in1004.4 mb 0.47 in11.9 mm 0.00 in0.0 mm 5.58 in141.7 mm
06:45 AM 72.0°F22.2°C 68.0°F20.0°C 87% 5.0 mph S8.0 kmh S 6.0 mph9.7 kmh 29.66 in1004.4 mb 0.45 in11.4 mm 0.00 in0.0 mm 5.62 in142.7 mm
06:50 AM 71.9°F22.2°C 68.0°F20.0°C 87% Calm Calm 6.0 mph9.7 kmh 29.66 in1004.4 mb 0.29 in7.4 mm 0.00 in0.0 mm 5.64 in143.3 mm
06:55 AM 71.9°F22.2°C 68.0°F20.0°C 87% Calm Calm 6.0 mph9.7 kmh 29.66 in1004.4 mb 0.26 in6.6 mm 0.00 in0.0 mm 5.67 in144.0 mm
07:00 AM 71.9°F22.2°C 68.0°F20.0°C 87% 1.0 mph SE1.6 kmh SE 4.0 mph6.4 kmh 29.66 in1004.4 mb 0.20 in5.1 mm 0.00 in0.0 mm 5.68 in144.3 mm
07:05 AM 71.9°F22.2°C 68.0°F20.0°C 87% 3.0 mph SE4.8 kmh SE 5.0 mph8.0 kmh 29.66 in1004.4 mb 0.10 in2.5 mm 0.00 in0.0 mm 5.69 in144.5 mm
07:10 AM 72.0°F22.2°C 68.0°F20.0°C 87% Calm Calm 5.0 mph8.0 kmh 29.66 in1004.4 mb 0.09 in2.3 mm 0.00 in0.0 mm 5.69 in144.5 mm
07:15 AM 72.1°F22.3°C 68.0°F20.0°C 87% Calm Calm 4.0 mph6.4 kmh 29.66 in1004.4 mb 0.05 in1.3 mm 0.00 in0.0 mm 5.69 in144.5 mm
07:20 AM 72.1°F22.3°C 68.0°F20.0°C 87% Calm Calm 4.0 mph6.4 kmh 29.65 in1004.1 mb 0.04 in1.0 mm 0.00 in0.0 mm 5.69 in144.5 mm
07:25 AM 72.1°F22.3°C 68.0°F20.0°C 87% Calm Calm 4.0 mph6.4 kmh 29.65 in1004.1 mb 0.00 in0.0 mm 0.00 in0.0 mm 5.69 in144.5 mm
07:30 AM 72.2°F22.3°C 68.0°F20.0°C 87% Calm Calm 2.0 mph3.2 kmh 29.65 in1004.1 mb 0.00 in0.0 mm 0.00 in0.0 mm 5.69 in144.5 mm
07:35 AM 72.2°F22.3°C 68.0°F20.0°C 87% Calm Calm 4.0 mph6.4 kmh 29.65 in1004.1 mb 0.00 in0.0 mm 0.00 in0.0 mm 5.70 in144.8 mm
07:40 AM 72.2°F22.3°C 68.0°F20.0°C 87% Calm Calm 4.0 mph6.4 kmh 29.65 in1004.1 mb 0.00 in0.0 mm 0.00 in0.0 mm 5.70 in144.8 mm
07:45 AM 72.2°F22.3°C 68.0°F20.0°C 87% Calm Calm 1.0 mph1.6 kmh 29.65 in1004.1 mb 0.00 in0.0 mm 0.00 in0.0 mm 5.70 in144.8 mm
07:50 AM 72.2°F22.3°C 68.0°F20.0°C 87% Calm Calm 1.0 mph1.6 kmh 29.65 in1004.1 mb 0.00 in0.0 mm 0.00 in0.0 mm 5.70 in144.8 mm
07:55 AM 72.2°F22.3°C 68.0°F20.0°C 87% Calm Calm -- 29.64 in1003.7 mb 0.00 in0.0 mm 0.00 in0.0 mm 5.70 in144.8 mm
08:00 AM 72.3°F22.4°C 68.0°F20.0°C 87% Calm Calm 5.0 mph8.0 kmh 29.64 in1003.7 mb 0.00 in0.0 mm 0.00 in0.0 mm 5.70 in144.8 mm
08:05 AM 72.4°F22.4°C 68.0°F20.0°C 87% Calm Calm 5.0 mph8.0 kmh 29.64 in1003.7 mb 0.00 in0.0 mm 0.00 in0.0 mm 5.70 in144.8 mm
08:10 AM 72.2°F22.3°C 68.0°F20.0°C 87% Calm Calm 5.0 mph8.0 kmh 29.64 in1003.7 mb 0.00 in0.0 mm 0.00 in0.0 mm 5.70 in144.8 mm
08:15 AM 72.2°F22.3°C 68.0°F20.0°C 87% Calm Calm 5.0 mph8.0 kmh 29.64 in1003.7 mb 0.00 in0.0 mm 0.00 in0.0 mm 5.70 in144.8 mm
08:20 AM 72.1°F22.3°C 68.0°F20.0°C 87% Calm Calm 5.0 mph8.0 kmh 29.64 in1003.7 mb 0.00 in0.0 mm 0.00 in0.0 mm 5.70 in144.8 mm
08:25 AM 72.0°F22.2°C 68.0°F20.0°C 87% 1.0 mph E1.6 kmh E 5.0 mph8.0 kmh 29.64 in1003.7 mb 0.00 in0.0 mm 0.00 in0.0 mm 5.70 in144.8 mm
08:30 AM 71.9°F22.2°C 68.0°F20.0°C 87% 1.0 mph ESE1.6 kmh ESE 5.0 mph8.0 kmh 29.64 in1003.7 mb 0.00 in0.0 mm 0.00 in0.0 mm 5.70 in144.8 mm
08:35 AM 71.9°F22.2°C 68.0°F20.0°C 87% 1.0 mph E1.6 kmh E 5.0 mph8.0 kmh 29.64 in1003.7 mb 0.00 in0.0 mm 0.00 in0.0 mm 5.70 in144.8 mm
08:40 AM 71.9°F22.2°C 68.0°F20.0°C 87% 1.0 mph E1.6 kmh E 4.0 mph6.4 kmh 29.64 in1003.7 mb 0.00 in0.0 mm 0.00 in0.0 mm 5.70 in144.8 mm
08:45 AM 71.9°F22.2°C 68.0°F20.0°C 87% Calm Calm 2.0 mph3.2 kmh 29.64 in1003.7 mb 0.00 in0.0 mm 0.00 in0.0 mm 5.70 in144.8 mm
08:50 AM 72.0°F22.2°C 68.0°F20.0°C 87% 1.0 mph E1.6 kmh E 4.0 mph6.4 kmh 29.64 in1003.7 mb 0.00 in0.0 mm 0.00 in0.0 mm 5.70 in144.8 mm
08:55 AM 72.1°F22.3°C 68.0°F20.0°C 87% Calm Calm 4.0 mph6.4 kmh 29.64 in1003.7 mb 0.00 in0.0 mm 0.00 in0.0 mm 5.70 in144.8 mm
09:00 AM 72.1°F22.3°C 68.0°F20.0°C 87% 1.0 mph SSE1.6 kmh SSE 4.0 mph6.4 kmh 29.64 in1003.7 mb 0.00 in0.0 mm 0.00 in0.0 mm 5.70 in144.8 mm
09:05 AM 72.1°F22.3°C 68.0°F20.0°C 87% Calm Calm 4.0 mph6.4 kmh 29.64 in1003.7 mb 0.00 in0.0 mm 0.00 in0.0 mm 5.71 in145.0 mm
09:10 AM 72.0°F22.2°C 68.0°F20.0°C 87% 1.0 mph SSE1.6 kmh SSE 2.0 mph3.2 kmh 29.64 in1003.7 mb 0.00 in0.0 mm 0.00 in0.0 mm 5.71 in145.0 mm
09:15 AM 72.1°F22.3°C 68.0°F20.0°C 87% Calm Calm 1.0 mph1.6 kmh 29.63 in1003.4 mb 0.00 in0.0 mm 0.00 in0.0 mm 5.71 in145.0 mm
09:20 AM 72.2°F22.3°C 69.0°F20.6°C 88% 1.0 mph S1.6 kmh S 2.0 mph3.2 kmh 29.63 in1003.4 mb 0.00 in0.0 mm 0.00 in0.0 mm 5.71 in145.0 mm
09:25 AM 72.4°F22.4°C 69.0°F20.6°C 88% Calm Calm 2.0 mph3.2 kmh 29.63 in1003.4 mb 0.00 in0.0 mm 0.00 in0.0 mm 5.71 in145.0 mm
09:30 AM 72.9°F22.7°C 69.0°F20.6°C 88% 1.0 mph SW1.6 kmh SW 2.0 mph3.2 kmh 29.62 in1003.0 mb 0.00 in0.0 mm 0.00 in0.0 mm 5.71 in145.0 mm
09:35 AM 72.8°F22.7°C 69.0°F20.6°C 88% Calm Calm 4.0 mph6.4 kmh 29.62 in1003.0 mb 0.00 in0.0 mm 0.00 in0.0 mm 5.71 in145.0 mm
09:40 AM 72.8°F22.7°C 69.0°F20.6°C 88% Calm Calm 4.0 mph6.4 kmh 29.63 in1003.4 mb 0.00 in0.0 mm 0.00 in0.0 mm 5.71 in145.0 mm
09:45 AM 72.8°F22.7°C 69.0°F20.6°C 88% Calm Calm 2.0 mph3.2 kmh 29.63 in1003.4 mb 0.00 in0.0 mm 0.00 in0.0 mm 5.71 in145.0 mm
09:50 AM 73.1°F22.8°C 69.0°F20.6°C 88% Calm Calm 2.0 mph3.2 kmh 29.63 in1003.4 mb 0.00 in0.0 mm 0.00 in0.0 mm 5.71 in145.0 mm
09:55 AM 73.5°F23.1°C 70.0°F21.1°C 89% 1.0 mph SSE1.6 kmh SSE 2.0 mph3.2 kmh 29.62 in1003.0 mb 0.00 in0.0 mm 0.00 in0.0 mm 5.71 in145.0 mm
10:00 AM 73.7°F23.2°C 70.0°F21.1°C 88% 1.0 mph SSE1.6 kmh SSE 2.0 mph3.2 kmh 29.63 in1003.4 mb 0.00 in0.0 mm 0.00 in0.0 mm 5.71 in145.0 mm
10:05 AM 73.9°F23.3°C 70.0°F21.1°C 88% Calm Calm 1.0 mph1.6 kmh 29.63 in1003.4 mb 0.00 in0.0 mm 0.00 in0.0 mm 5.71 in145.0 mm
10:10 AM 73.6°F23.1°C 70.0°F21.1°C 88% 1.0 mph SSE1.6 kmh SSE 2.0 mph3.2 kmh 29.63 in1003.4 mb 0.00 in0.0 mm 0.00 in0.0 mm 5.71 in145.0 mm
10:15 AM 73.0°F22.8°C 69.0°F20.6°C 88% Calm Calm 4.0 mph6.4 kmh 29.63 in1003.4 mb 0.00 in0.0 mm 0.00 in0.0 mm 5.71 in145.0 mm
10:20 AM 73.3°F22.9°C 70.0°F21.1°C 88% Calm Calm 4.0 mph6.4 kmh 29.63 in1003.4 mb 0.00 in0.0 mm 0.00 in0.0 mm 5.71 in145.0 mm
10:25 AM 73.1°F22.8°C 69.0°F20.6°C 88% 2.0 mph NE3.2 kmh NE 2.0 mph3.2 kmh 29.63 in1003.4 mb 0.00 in0.0 mm 0.00 in0.0 mm 5.71 in145.0 mm
10:30 AM 73.1°F22.8°C 69.0°F20.6°C 88% Calm Calm 2.0 mph3.2 kmh 29.63 in1003.4 mb 0.00 in0.0 mm 0.00 in0.0 mm 5.71 in145.0 mm
10:35 AM 73.1°F22.8°C 69.0°F20.6°C 88% 1.0 mph S1.6 kmh S 2.0 mph3.2 kmh 29.63 in1003.4 mb 0.00 in0.0 mm 0.00 in0.0 mm 5.71 in145.0 mm
10:40 AM 74.5°F23.6°C 71.0°F21.7°C 89% Calm Calm 2.0 mph3.2 kmh 29.63 in1003.4 mb 0.00 in0.0 mm 0.00 in0.0 mm 5.71 in145.0 mm
10:45 AM 74.1°F23.4°C 70.0°F21.1°C 88% Calm Calm 2.0 mph3.2 kmh 29.63 in1003.4 mb 0.00 in0.0 mm 0.00 in0.0 mm 5.71 in145.0 mm
10:50 AM 73.4°F23.0°C 70.0°F21.1°C 88% 1.0 mph WSW1.6 kmh WSW 2.0 mph3.2 kmh 29.63 in1003.4 mb 0.00 in0.0 mm 0.00 in0.0 mm 5.71 in145.0 mm
10:55 AM 73.7°F23.2°C 70.0°F21.1°C 88% Calm Calm 2.0 mph3.2 kmh 29.63 in1003.4 mb 0.00 in0.0 mm 0.00 in0.0 mm 5.71 in145.0 mm
11:00 AM 73.9°F23.3°C 70.0°F21.1°C 88% Calm Calm 2.0 mph3.2 kmh 29.63 in1003.4 mb 0.00 in0.0 mm 0.00 in0.0 mm 5.71 in145.0 mm
11:05 AM 74.4°F23.6°C 71.0°F21.7°C 88% 1.0 mph W1.6 kmh W 2.0 mph3.2 kmh 29.63 in1003.4 mb 0.00 in0.0 mm 0.00 in0.0 mm 5.71 in145.0 mm
11:10 AM 74.6°F23.7°C 71.0°F21.7°C 88% Calm Calm 2.0 mph3.2 kmh 29.63 in1003.4 mb 0.00 in0.0 mm 0.00 in0.0 mm 5.71 in145.0 mm
11:15 AM 74.1°F23.4°C 70.0°F21.1°C 87% Calm Calm 2.0 mph3.2 kmh 29.63 in1003.4 mb 0.00 in0.0 mm 0.00 in0.0 mm 5.71 in145.0 mm
11:20 AM 74.1°F23.4°C 70.0°F21.1°C 88% Calm Calm 2.0 mph3.2 kmh 29.63 in1003.4 mb 0.00 in0.0 mm 0.00 in0.0 mm 5.71 in145.0 mm
11:25 AM 74.3°F23.5°C 71.0°F21.7°C 88% Calm Calm 1.0 mph1.6 kmh 29.63 in1003.4 mb 0.00 in0.0 mm 0.00 in0.0 mm 5.71 in145.0 mm
11:30 AM 74.7°F23.7°C 71.0°F21.7°C 88% 1.0 mph W1.6 kmh W 1.0 mph1.6 kmh 29.63 in1003.4 mb 0.00 in0.0 mm 0.00 in0.0 mm 5.71 in145.0 mm
11:35 AM 75.0°F23.9°C 71.0°F21.7°C 87% Calm Calm 2.0 mph3.2 kmh 29.63 in1003.4 mb 0.00 in0.0 mm 0.00 in0.0 mm 5.71 in145.0 mm
11:40 AM 75.7°F24.3°C 71.0°F21.7°C 86% Calm Calm 2.0 mph3.2 kmh 29.63 in1003.4 mb 0.00 in0.0 mm 0.00 in0.0 mm 5.71 in145.0 mm
11:45 AM 75.9°F24.4°C 72.0°F22.2°C 86% Calm Calm 5.0 mph8.0 kmh 29.63 in1003.4 mb 0.00 in0.0 mm 0.00 in0.0 mm 5.71 in145.0 mm
11:50 AM 75.7°F24.3°C 71.0°F21.7°C 86% 1.0 mph NW1.6 kmh NW 5.0 mph8.0 kmh 29.63 in1003.4 mb 0.00 in0.0 mm 0.00 in0.0 mm 5.71 in145.0 mm
11:55 AM 75.9°F24.4°C 72.0°F22.2°C 86% Calm Calm 1.0 mph1.6 kmh 29.63 in1003.4 mb 0.00 in0.0 mm 0.00 in0.0 mm 5.71 in145.0 mm
12:00 PM 75.6°F24.2°C 71.0°F21.7°C 85% 1.0 mph NW1.6 kmh NW 2.0 mph3.2 kmh 29.63 in1003.4 mb 0.00 in0.0 mm 0.00 in0.0 mm 5.71 in145.0 mm
12:05 PM 75.4°F24.1°C 70.0°F21.1°C 84% Calm Calm 2.0 mph3.2 kmh 29.62 in1003.0 mb 0.00 in0.0 mm 0.00 in0.0 mm 5.71 in145.0 mm
12:10 PM 75.6°F24.2°C 71.0°F21.7°C 85% Calm Calm 2.0 mph3.2 kmh 29.62 in1003.0 mb 0.00 in0.0 mm 0.00 in0.0 mm 5.71 in145.0 mm
12:15 PM 76.1°F24.5°C 71.0°F21.7°C 85% Calm Calm 2.0 mph3.2 kmh 29.63 in1003.4 mb 0.00 in0.0 mm 0.00 in0.0 mm 5.71 in145.0 mm
12:20 PM 76.5°F24.7°C 71.0°F21.7°C 84% Calm Calm 2.0 mph3.2 kmh 29.63 in1003.4 mb 0.00 in0.0 mm 0.00 in0.0 mm 5.71 in145.0 mm
12:25 PM 76.6°F24.8°C 71.0°F21.7°C 83% Calm Calm 2.0 mph3.2 kmh 29.63 in1003.4 mb 0.00 in0.0 mm 0.00 in0.0 mm 5.71 in145.0 mm
12:30 PM 76.8°F24.9°C 71.0°F21.7°C 83% Calm Calm 2.0 mph3.2 kmh 29.63 in1003.4 mb 0.00 in0.0 mm 0.00 in0.0 mm 5.71 in145.0 mm
12:35 PM 76.9°F24.9°C 71.0°F21.7°C 83% Calm Calm 2.0 mph3.2 kmh 29.63 in1003.4 mb 0.00 in0.0 mm 0.00 in0.0 mm 5.71 in145.0 mm
12:40 PM 77.3°F25.2°C 71.0°F21.7°C 82% 1.0 mph NNE1.6 kmh NNE 2.0 mph3.2 kmh 29.63 in1003.4 mb 0.00 in0.0 mm 0.00 in0.0 mm 5.71 in145.0 mm
12:45 PM 77.1°F25.1°C 71.0°F21.7°C 82% 2.0 mph NNE3.2 kmh NNE 2.0 mph3.2 kmh 29.63 in1003.4 mb 0.00 in0.0 mm 0.00 in0.0 mm 5.71 in145.0 mm
12:50 PM 76.4°F24.7°C 71.0°F21.7°C 82% Calm Calm 2.0 mph3.2 kmh 29.63 in1003.4 mb 0.00 in0.0 mm 0.00 in0.0 mm 5.71 in145.0 mm
12:55 PM 76.9°F24.9°C 71.0°F21.7°C 82% Calm Calm 2.0 mph3.2 kmh 29.63 in1003.4 mb 0.00 in0.0 mm 0.00 in0.0 mm 5.71 in145.0 mm
01:00 PM 78.0°F25.6°C 72.0°F22.2°C 82% Calm Calm 5.0 mph8.0 kmh 29.63 in1003.4 mb 0.00 in0.0 mm 0.00 in0.0 mm 5.71 in145.0 mm
01:05 PM 77.5°F25.3°C 71.0°F21.7°C 81% Calm Calm 5.0 mph8.0 kmh 29.63 in1003.4 mb 0.00 in0.0 mm 0.00 in0.0 mm 5.71 in145.0 mm
01:10 PM 77.3°F25.2°C 71.0°F21.7°C 82% Calm Calm 2.0 mph3.2 kmh 29.63 in1003.4 mb 0.00 in0.0 mm 0.00 in0.0 mm 5.71 in145.0 mm
01:15 PM 77.5°F25.3°C 72.0°F22.2°C 82% Calm Calm 1.0 mph1.6 kmh 29.63 in1003.4 mb 0.00 in0.0 mm 0.00 in0.0 mm 5.71 in145.0 mm
01:20 PM 77.3°F25.2°C 71.0°F21.7°C 81% Calm Calm -- 29.63 in1003.4 mb 0.00 in0.0 mm 0.00 in0.0 mm 5.71 in145.0 mm
01:25 PM 77.5°F25.3°C 71.0°F21.7°C 80% 3.0 mph E4.8 kmh E 5.0 mph8.0 kmh 29.63 in1003.4 mb 0.00 in0.0 mm 0.00 in0.0 mm 5.71 in145.0 mm
01:30 PM 77.5°F25.3°C 71.0°F21.7°C 80% Calm Calm 5.0 mph8.0 kmh 29.63 in1003.4 mb 0.00 in0.0 mm 0.00 in0.0 mm 5.71 in145.0 mm
01:35 PM 76.8°F24.9°C 70.0°F21.1°C 79% Calm Calm 4.0 mph6.4 kmh 29.63 in1003.4 mb 0.00 in0.0 mm 0.00 in0.0 mm 5.71 in145.0 mm
01:40 PM 76.6°F24.8°C 70.0°F21.1°C 80% Calm Calm 4.0 mph6.4 kmh 29.63 in1003.4 mb 0.00 in0.0 mm 0.00 in0.0 mm 5.71 in145.0 mm
01:45 PM 76.7°F24.8°C 70.0°F21.1°C 80% Calm Calm 4.0 mph6.4 kmh 29.63 in1003.4 mb 0.00 in0.0 mm 0.00 in0.0 mm 5.71 in145.0 mm
01:50 PM 77.1°F25.1°C 70.0°F21.1°C 79% Calm Calm 4.0 mph6.4 kmh 29.63 in1003.4 mb 0.00 in0.0 mm 0.00 in0.0 mm 5.71 in145.0 mm
01:55 PM 77.3°F25.2°C 70.0°F21.1°C 79% Calm Calm 4.0 mph6.4 kmh 29.62 in1003.0 mb 0.00 in0.0 mm 0.00 in0.0 mm 5.71 in145.0 mm
02:00 PM 77.4°F25.2°C 70.0°F21.1°C 79% 1.0 mph SSW1.6 kmh SSW 5.0 mph8.0 kmh 29.62 in1003.0 mb 0.00 in0.0 mm 0.00 in0.0 mm 5.71 in145.0 mm
02:05 PM 77.2°F25.1°C 70.0°F21.1°C 79% 1.0 mph SSW1.6 kmh SSW 5.0 mph8.0 kmh 29.63 in1003.4 mb 0.00 in0.0 mm 0.00 in0.0 mm 5.71 in145.0 mm
02:10 PM 76.9°F24.9°C 70.0°F21.1°C 79% Calm Calm 5.0 mph8.0 kmh 29.63 in1003.4 mb 0.00 in0.0 mm 0.00 in0.0 mm 5.71 in145.0 mm
02:15 PM 76.6°F24.8°C 70.0°F21.1°C 79% Calm Calm 4.0 mph6.4 kmh 29.63 in1003.4 mb 0.00 in0.0 mm 0.00 in0.0 mm 5.71 in145.0 mm
02:20 PM 76.7°F24.8°C 70.0°F21.1°C 79% 2.0 mph WSW3.2 kmh WSW 4.0 mph6.4 kmh 29.62 in1003.0 mb 0.00 in0.0 mm 0.00 in0.0 mm 5.71 in145.0 mm
02:25 PM 76.8°F24.9°C 70.0°F21.1°C 80% 2.0 mph N3.2 kmh N 4.0 mph6.4 kmh 29.62 in1003.0 mb 0.00 in0.0 mm 0.00 in0.0 mm 5.71 in145.0 mm
02:30 PM 76.9°F24.9°C 70.0°F21.1°C 79% 1.0 mph NNW1.6 kmh NNW 2.0 mph3.2 kmh 29.62 in1003.0 mb 0.00 in0.0 mm 0.00 in0.0 mm 5.71 in145.0 mm
02:35 PM 76.6°F24.8°C 70.0°F21.1°C 79% 1.0 mph SSW1.6 kmh SSW 3.0 mph4.8 kmh 29.62 in1003.0 mb 0.00 in0.0 mm 0.00 in0.0 mm 5.71 in145.0 mm
02:40 PM 76.4°F24.7°C 69.0°F20.6°C 79% 1.0 mph SW1.6 kmh SW 4.0 mph6.4 kmh 29.62 in1003.0 mb 0.00 in0.0 mm 0.00 in0.0 mm 5.71 in145.0 mm
02:45 PM 76.2°F24.6°C 69.0°F20.6°C 79% Calm Calm 4.0 mph6.4 kmh 29.62 in1003.0 mb 0.00 in0.0 mm 0.00 in0.0 mm 5.71 in145.0 mm
02:50 PM 76.1°F24.5°C 70.0°F21.1°C 80% 1.0 mph SE1.6 kmh SE 4.0 mph6.4 kmh 29.61 in1002.7 mb 0.00 in0.0 mm 0.00 in0.0 mm 5.71 in145.0 mm
02:55 PM 76.3°F24.6°C 70.0°F21.1°C 80% 2.0 mph SE3.2 kmh SE 2.0 mph3.2 kmh 29.62 in1003.0 mb 0.00 in0.0 mm 0.00 in0.0 mm 5.71 in145.0 mm
03:00 PM 76.2°F24.6°C 70.0°F21.1°C 80% 3.0 mph SE4.8 kmh SE 5.0 mph8.0 kmh 29.62 in1003.0 mb 0.00 in0.0 mm 0.00 in0.0 mm 5.71 in145.0 mm
03:05 PM 75.8°F24.3°C 69.0°F20.6°C 80% 1.0 mph SW1.6 kmh SW 5.0 mph8.0 kmh 29.62 in1003.0 mb 0.00 in0.0 mm 0.00 in0.0 mm 5.71 in145.0 mm
03:10 PM 75.7°F24.3°C 69.0°F20.6°C 80% 1.0 mph E1.6 kmh E 5.0 mph8.0 kmh 29.63 in1003.4 mb 0.00 in0.0 mm 0.00 in0.0 mm 5.71 in145.0 mm
03:15 PM 75.7°F24.3°C 70.0°F21.1°C 81% 1.0 mph E1.6 kmh E 5.0 mph8.0 kmh 29.63 in1003.4 mb 0.00 in0.0 mm 0.00 in0.0 mm 5.71 in145.0 mm
03:20 PM 75.9°F24.4°C 70.0°F21.1°C 81% Calm Calm 5.0 mph8.0 kmh 29.62 in1003.0 mb 0.00 in0.0 mm 0.00 in0.0 mm 5.71 in145.0 mm
03:25 PM 76.0°F24.4°C 70.0°F21.1°C 81% 2.0 mph SW3.2 kmh SW 5.0 mph8.0 kmh 29.62 in1003.0 mb 0.00 in0.0 mm 0.00 in0.0 mm 5.71 in145.0 mm
03:30 PM 75.9°F24.4°C 70.0°F21.1°C 81% 1.0 mph E1.6 kmh E 4.0 mph6.4 kmh 29.62 in1003.0 mb 0.00 in0.0 mm 0.00 in0.0 mm 5.71 in145.0 mm
03:35 PM 75.8°F24.3°C 69.0°F20.6°C 80% 1.0 mph SW1.6 kmh SW 4.0 mph6.4 kmh 29.63 in1003.4 mb 0.00 in0.0 mm 0.00 in0.0 mm 5.71 in145.0 mm
03:40 PM 75.8°F24.3°C 70.0°F21.1°C 81% Calm Calm 2.0 mph3.2 kmh 29.63 in1003.4 mb 0.00 in0.0 mm 0.00 in0.0 mm 5.71 in145.0 mm
03:45 PM 76.0°F24.4°C 70.0°F21.1°C 81% 1.0 mph SW1.6 kmh SW 4.0 mph6.4 kmh 29.63 in1003.4 mb 0.00 in0.0 mm 0.00 in0.0 mm 5.71 in145.0 mm
03:50 PM 75.9°F24.4°C 70.0°F21.1°C 81% 1.0 mph SW1.6 kmh SW 4.0 mph6.4 kmh 29.63 in1003.4 mb 0.00 in0.0 mm 0.00 in0.0 mm 5.71 in145.0 mm
03:55 PM 75.8°F24.3°C 69.0°F20.6°C 80% Calm Calm 3.0 mph4.8 kmh 29.63 in1003.4 mb 0.00 in0.0 mm 0.00 in0.0 mm 5.71 in145.0 mm
04:00 PM 75.7°F24.3°C 70.0°F21.1°C 81% 4.0 mph E6.4 kmh E 5.0 mph8.0 kmh 29.62 in1003.0 mb 0.00 in0.0 mm 0.00 in0.0 mm 5.71 in145.0 mm
04:05 PM 75.7°F24.3°C 70.0°F21.1°C 81% Calm Calm 5.0 mph8.0 kmh 29.63 in1003.4 mb 0.00 in0.0 mm 0.00 in0.0 mm 5.71 in145.0 mm
04:10 PM 75.7°F24.3°C 70.0°F21.1°C 81% Calm Calm 5.0 mph8.0 kmh 29.63 in1003.4 mb 0.00 in0.0 mm 0.00 in0.0 mm 5.71 in145.0 mm
04:15 PM 75.8°F24.3°C 69.0°F20.6°C 80% Calm Calm 2.0 mph3.2 kmh 29.63 in1003.4 mb 0.00 in0.0 mm 0.00 in0.0 mm 5.71 in145.0 mm
04:20 PM 75.8°F24.3°C 69.0°F20.6°C 80% Calm Calm 1.0 mph1.6 kmh 29.63 in1003.4 mb 0.00 in0.0 mm 0.00 in0.0 mm 5.71 in145.0 mm
04:25 PM 75.8°F24.3°C 69.0°F20.6°C 80% Calm Calm -- 29.64 in1003.7 mb 0.00 in0.0 mm 0.00 in0.0 mm 5.72 in145.3 mm
04:30 PM 75.8°F24.3°C 70.0°F21.1°C 81% Calm Calm -- 29.64 in1003.7 mb 0.00 in0.0 mm 0.00 in0.0 mm 5.72 in145.3 mm
04:35 PM 75.8°F24.3°C 70.0°F21.1°C 81% Calm Calm -- 29.64 in1003.7 mb 0.00 in0.0 mm 0.00 in0.0 mm 5.72 in145.3 mm
04:40 PM 75.8°F24.3°C 70.0°F21.1°C 81% 2.0 mph ESE3.2 kmh ESE 5.0 mph8.0 kmh 29.64 in1003.7 mb 0.05 in1.3 mm 0.60 in15.2 mm 5.73 in145.5 mm
04:45 PM 75.1°F23.9°C 69.0°F20.6°C 81% Calm Calm 5.0 mph8.0 kmh 29.64 in1003.7 mb 0.05 in1.3 mm 0.00 in0.0 mm 5.73 in145.5 mm
04:50 PM 74.6°F23.7°C 69.0°F20.6°C 83% Calm Calm 4.0 mph6.4 kmh 29.63 in1003.4 mb 0.04 in1.0 mm 0.00 in0.0 mm 5.73 in145.5 mm
04:55 PM 74.6°F23.7°C 70.0°F21.1°C 84% Calm Calm 4.0 mph6.4 kmh 29.64 in1003.7 mb 0.00 in0.0 mm 0.00 in0.0 mm 5.73 in145.5 mm
05:00 PM 74.6°F23.7°C 70.0°F21.1°C 84% Calm Calm 2.0 mph3.2 kmh 29.64 in1003.7 mb 0.00 in0.0 mm 0.00 in0.0 mm 5.73 in145.5 mm
05:05 PM 74.4°F23.6°C 70.0°F21.1°C 85% Calm Calm 1.0 mph1.6 kmh 29.64 in1003.7 mb 0.00 in0.0 mm 0.00 in0.0 mm 5.73 in145.5 mm
05:10 PM 74.2°F23.4°C 70.0°F21.1°C 85% Calm Calm 1.0 mph1.6 kmh 29.64 in1003.7 mb 0.00 in0.0 mm 0.00 in0.0 mm 5.73 in145.5 mm
05:15 PM 74.2°F23.4°C 70.0°F21.1°C 85% Calm Calm -- 29.64 in1003.7 mb 0.00 in0.0 mm 0.00 in0.0 mm 5.73 in145.5 mm
05:20 PM 74.1°F23.4°C 69.0°F20.6°C 85% Calm Calm 1.0 mph1.6 kmh 29.64 in1003.7 mb 0.00 in0.0 mm 0.00 in0.0 mm 5.73 in145.5 mm
05:25 PM 74.0°F23.3°C 69.0°F20.6°C 85% 2.0 mph ESE3.2 kmh ESE 2.0 mph3.2 kmh 29.63 in1003.4 mb 0.00 in0.0 mm 0.00 in0.0 mm 5.73 in145.5 mm
05:30 PM 73.9°F23.3°C 69.0°F20.6°C 85% 1.0 mph ESE1.6 kmh ESE 2.0 mph3.2 kmh 29.63 in1003.4 mb 0.00 in0.0 mm 0.00 in0.0 mm 5.73 in145.5 mm
05:35 PM 74.0°F23.3°C 69.0°F20.6°C 85% Calm Calm 2.0 mph3.2 kmh 29.64 in1003.7 mb 0.00 in0.0 mm 0.00 in0.0 mm 5.73 in145.5 mm
05:40 PM 73.8°F23.2°C 69.0°F20.6°C 85% 1.0 mph S1.6 kmh S 4.0 mph6.4 kmh 29.64 in1003.7 mb 0.00 in0.0 mm 0.00 in0.0 mm 5.73 in145.5 mm
05:45 PM 73.7°F23.2°C 69.0°F20.6°C 85% 1.0 mph SW1.6 kmh SW 5.0 mph8.0 kmh 29.64 in1003.7 mb 0.00 in0.0 mm 0.00 in0.0 mm 5.73 in145.5 mm
05:50 PM 73.6°F23.1°C 69.0°F20.6°C 85% Calm Calm 5.0 mph8.0 kmh 29.65 in1004.1 mb 0.00 in0.0 mm 0.00 in0.0 mm 5.73 in145.5 mm
05:55 PM 73.9°F23.3°C 70.0°F21.1°C 86% 1.0 mph SW1.6 kmh SW 4.0 mph6.4 kmh 29.65 in1004.1 mb 0.00 in0.0 mm 0.00 in0.0 mm 5.73 in145.5 mm
06:00 PM 74.1°F23.4°C 70.0°F21.1°C 86% Calm Calm 1.0 mph1.6 kmh 29.66 in1004.4 mb 0.00 in0.0 mm 0.00 in0.0 mm 5.73 in145.5 mm
06:05 PM 74.2°F23.4°C 70.0°F21.1°C 86% Calm Calm 1.0 mph1.6 kmh 29.66 in1004.4 mb 0.00 in0.0 mm 0.00 in0.0 mm 5.73 in145.5 mm
06:10 PM 74.3°F23.5°C 70.0°F21.1°C 86% Calm Calm -- 29.66 in1004.4 mb 0.00 in0.0 mm 0.00 in0.0 mm 5.73 in145.5 mm
06:15 PM 74.3°F23.5°C 70.0°F21.1°C 86% Calm Calm -- 29.66 in1004.4 mb 0.00 in0.0 mm 0.00 in0.0 mm 5.73 in145.5 mm
06:20 PM 74.3°F23.5°C 70.0°F21.1°C 86% Calm Calm -- 29.67 in1004.7 mb 0.00 in0.0 mm 0.00 in0.0 mm 5.73 in145.5 mm
06:25 PM 74.3°F23.5°C 70.0°F21.1°C 86% Calm Calm -- 29.67 in1004.7 mb 0.00 in0.0 mm 0.00 in0.0 mm 5.73 in145.5 mm
06:30 PM 74.3°F23.5°C 70.0°F21.1°C 86% Calm Calm -- 29.67 in1004.7 mb 0.00 in0.0 mm 0.00 in0.0 mm 5.73 in145.5 mm
06:35 PM 74.3°F23.5°C 70.0°F21.1°C 86% Calm Calm -- 29.68 in1005.1 mb 0.00 in0.0 mm 0.00 in0.0 mm 5.73 in145.5 mm
06:40 PM 74.3°F23.5°C 70.0°F21.1°C 86% Calm Calm -- 29.68 in1005.1 mb 0.00 in0.0 mm 0.00 in0.0 mm 5.73 in145.5 mm
06:45 PM 74.3°F23.5°C 70.0°F21.1°C 86% Calm Calm -- 29.69 in1005.4 mb 0.00 in0.0 mm 0.00 in0.0 mm 5.73 in145.5 mm
06:50 PM 74.3°F23.5°C 70.0°F21.1°C 86% Calm Calm -- 29.69 in1005.4 mb 0.00 in0.0 mm 0.00 in0.0 mm 5.73 in145.5 mm
06:55 PM 74.2°F23.4°C 70.0°F21.1°C 86% Calm Calm -- 29.69 in1005.4 mb 0.00 in0.0 mm 0.00 in0.0 mm 5.73 in145.5 mm
07:00 PM 74.2°F23.4°C 70.0°F21.1°C 86% Calm Calm -- 29.69 in1005.4 mb 0.00 in0.0 mm 0.00 in0.0 mm 5.73 in145.5 mm
07:05 PM 74.2°F23.4°C 70.0°F21.1°C 86% Calm Calm -- 29.68 in1005.1 mb 0.00 in0.0 mm 0.00 in0.0 mm 5.73 in145.5 mm
07:10 PM 74.1°F23.4°C 70.0°F21.1°C 86% Calm Calm 1.0 mph1.6 kmh 29.68 in1005.1 mb 0.00 in0.0 mm 0.00 in0.0 mm 5.73 in145.5 mm
07:15 PM 74.0°F23.3°C 70.0°F21.1°C 86% Calm Calm 1.0 mph1.6 kmh 29.68 in1005.1 mb 0.00 in0.0 mm 0.00 in0.0 mm 5.73 in145.5 mm
07:20 PM 73.9°F23.3°C 70.0°F21.1°C 86% Calm Calm -- 29.68 in1005.1 mb 0.00 in0.0 mm 0.00 in0.0 mm 5.73 in145.5 mm
07:25 PM 73.8°F23.2°C 69.0°F20.6°C 86% Calm Calm -- 29.68 in1005.1 mb 0.00 in0.0 mm 0.00 in0.0 mm 5.73 in145.5 mm
07:30 PM 73.6°F23.1°C 69.0°F20.6°C 86% Calm Calm -- 29.68 in1005.1 mb 0.00 in0.0 mm 0.00 in0.0 mm 5.73 in145.5 mm
07:35 PM 73.4°F23.0°C 69.0°F20.6°C 86% Calm Calm -- 29.69 in1005.4 mb 0.00 in0.0 mm 0.00 in0.0 mm 5.73 in145.5 mm
07:40 PM 73.3°F22.9°C 69.0°F20.6°C 86% Calm Calm -- 29.69 in1005.4 mb 0.00 in0.0 mm 0.00 in0.0 mm 5.73 in145.5 mm
07:45 PM 73.2°F22.9°C 69.0°F20.6°C 85% Calm Calm -- 29.69 in1005.4 mb 0.00 in0.0 mm 0.00 in0.0 mm 5.73 in145.5 mm
07:50 PM 73.0°F22.8°C 68.0°F20.0°C 85% Calm Calm -- 29.69 in1005.4 mb 0.00 in0.0 mm 0.00 in0.0 mm 5.73 in145.5 mm
07:55 PM 72.9°F22.7°C 68.0°F20.0°C 85% Calm Calm -- 29.70 in1005.8 mb 0.00 in0.0 mm 0.00 in0.0 mm 5.73 in145.5 mm
08:00 PM 72.7°F22.6°C 68.0°F20.0°C 85% Calm Calm -- 29.70 in1005.8 mb 0.00 in0.0 mm 0.00 in0.0 mm 5.73 in145.5 mm
08:05 PM 72.6°F22.6°C 68.0°F20.0°C 85% Calm Calm -- 29.70 in1005.8 mb 0.00 in0.0 mm 0.00 in0.0 mm 5.73 in145.5 mm
08:10 PM 72.4°F22.4°C 68.0°F20.0°C 85% Calm Calm -- 29.70 in1005.8 mb 0.00 in0.0 mm 0.00 in0.0 mm 5.73 in145.5 mm
08:15 PM 72.4°F22.4°C 68.0°F20.0°C 85% Calm Calm -- 29.70 in1005.8 mb 0.00 in0.0 mm 0.00 in0.0 mm 5.73 in145.5 mm
08:20 PM 72.3°F22.4°C 68.0°F20.0°C 85% Calm Calm -- 29.71 in1006.1 mb 0.00 in0.0 mm 0.00 in0.0 mm 5.73 in145.5 mm
08:25 PM 72.2°F22.3°C 68.0°F20.0°C 85% Calm Calm -- 29.71 in1006.1 mb 0.00 in0.0 mm 0.00 in0.0 mm 5.73 in145.5 mm
08:30 PM 72.1°F22.3°C 67.0°F19.4°C 85% Calm Calm -- 29.71 in1006.1 mb 0.00 in0.0 mm 0.00 in0.0 mm 5.73 in145.5 mm
08:35 PM 72.0°F22.2°C 67.0°F19.4°C 85% Calm Calm -- 29.71 in1006.1 mb 0.00 in0.0 mm 0.00 in0.0 mm 5.73 in145.5 mm
08:40 PM 71.9°F22.2°C 68.0°F20.0°C 86% Calm Calm -- 29.72 in1006.4 mb 0.00 in0.0 mm 0.00 in0.0 mm 5.73 in145.5 mm
08:45 PM 71.8°F22.1°C 68.0°F20.0°C 86% Calm Calm -- 29.72 in1006.4 mb 0.00 in0.0 mm 0.00 in0.0 mm 5.73 in145.5 mm
08:50 PM 71.8°F22.1°C 67.0°F19.4°C 85% Calm Calm -- 29.72 in1006.4 mb 0.00 in0.0 mm 0.00 in0.0 mm 5.73 in145.5 mm
08:55 PM 71.7°F22.1°C 67.0°F19.4°C 85% Calm Calm -- 29.72 in1006.4 mb 0.00 in0.0 mm 0.00 in0.0 mm 5.73 in145.5 mm
09:00 PM 71.6°F22.0°C 67.0°F19.4°C 85% Calm Calm -- 29.72 in1006.4 mb 0.00 in0.0 mm 0.00 in0.0 mm 5.73 in145.5 mm
09:05 PM 71.6°F22.0°C 67.0°F19.4°C 85% Calm Calm -- 29.72 in1006.4 mb 0.00 in0.0 mm 0.00 in0.0 mm 5.73 in145.5 mm
09:10 PM 71.5°F21.9°C 67.0°F19.4°C 85% Calm Calm -- 29.71 in1006.1 mb 0.00 in0.0 mm 0.00 in0.0 mm 5.73 in145.5 mm
09:15 PM 71.4°F21.9°C 67.0°F19.4°C 85% Calm Calm -- 29.71 in1006.1 mb 0.00 in0.0 mm 0.00 in0.0 mm 5.73 in145.5 mm
09:20 PM 71.4°F21.9°C 67.0°F19.4°C 86% Calm Calm -- 29.71 in1006.1 mb 0.00 in0.0 mm 0.00 in0.0 mm 5.73 in145.5 mm
09:25 PM 71.3°F21.8°C 67.0°F19.4°C 86% Calm Calm -- 29.71 in1006.1 mb 0.00 in0.0 mm 0.00 in0.0 mm 5.73 in145.5 mm
09:30 PM 71.3°F21.8°C 67.0°F19.4°C 86% Calm Calm -- 29.72 in1006.4 mb 0.00 in0.0 mm 0.00 in0.0 mm 5.73 in145.5 mm
09:35 PM 71.2°F21.8°C 67.0°F19.4°C 86% Calm Calm -- 29.72 in1006.4 mb 0.00 in0.0 mm 0.00 in0.0 mm 5.73 in145.5 mm
09:40 PM 71.1°F21.7°C 67.0°F19.4°C 86% Calm Calm -- 29.71 in1006.1 mb 0.00 in0.0 mm 0.00 in0.0 mm 5.73 in145.5 mm
09:45 PM 71.1°F21.7°C 66.0°F18.9°C 85% Calm Calm -- 29.72 in1006.4 mb 0.00 in0.0 mm 0.00 in0.0 mm 5.73 in145.5 mm
09:50 PM 71.1°F21.7°C 66.0°F18.9°C 85% Calm Calm -- 29.72 in1006.4 mb 0.00 in0.0 mm 0.00 in0.0 mm 5.73 in145.5 mm
09:55 PM 71.0°F21.7°C 66.0°F18.9°C 85% Calm Calm -- 29.72 in1006.4 mb 0.00 in0.0 mm 0.00 in0.0 mm 5.73 in145.5 mm
10:00 PM 71.0°F21.7°C 67.0°F19.4°C 86% Calm Calm -- 29.72 in1006.4 mb 0.00 in0.0 mm 0.00 in0.0 mm 5.73 in145.5 mm
10:05 PM 71.0°F21.7°C 66.0°F18.9°C 85% Calm Calm -- 29.73 in1006.8 mb 0.00 in0.0 mm 0.00 in0.0 mm 5.73 in145.5 mm
10:10 PM 70.9°F21.6°C 67.0°F19.4°C 86% Calm Calm -- 29.74 in1007.1 mb 0.00 in0.0 mm 0.00 in0.0 mm 5.73 in145.5 mm
10:15 PM 71.0°F21.7°C 67.0°F19.4°C 86% Calm Calm 1.0 mph1.6 kmh 29.74 in1007.1 mb 0.00 in0.0 mm 0.00 in0.0 mm 5.73 in145.5 mm
10:20 PM 71.0°F21.7°C 67.0°F19.4°C 86% Calm Calm 1.0 mph1.6 kmh 29.73 in1006.8 mb 0.00 in0.0 mm 0.00 in0.0 mm 5.73 in145.5 mm
10:25 PM 71.0°F21.7°C 67.0°F19.4°C 86% Calm Calm 1.0 mph1.6 kmh 29.74 in1007.1 mb 0.00 in0.0 mm 0.00 in0.0 mm 5.73 in145.5 mm
10:30 PM 71.0°F21.7°C 67.0°F19.4°C 86% Calm Calm 1.0 mph1.6 kmh 29.74 in1007.1 mb 0.00 in0.0 mm 0.00 in0.0 mm 5.73 in145.5 mm
10:35 PM 71.0°F21.7°C 67.0°F19.4°C 86% Calm Calm 1.0 mph1.6 kmh 29.74 in1007.1 mb 0.00 in0.0 mm 0.00 in0.0 mm 5.73 in145.5 mm
10:40 PM 71.1°F21.7°C 67.0°F19.4°C 86% Calm Calm -- 29.74 in1007.1 mb 0.00 in0.0 mm 0.00 in0.0 mm 5.73 in145.5 mm
10:45 PM 71.1°F21.7°C 67.0°F19.4°C 86% Calm Calm -- 29.73 in1006.8 mb 0.00 in0.0 mm 0.00 in0.0 mm 5.73 in145.5 mm
10:50 PM 71.1°F21.7°C 67.0°F19.4°C 86% Calm Calm -- 29.73 in1006.8 mb 0.00 in0.0 mm 0.00 in0.0 mm 5.73 in145.5 mm
10:55 PM 71.2°F21.8°C 67.0°F19.4°C 86% Calm Calm -- 29.73 in1006.8 mb 0.00 in0.0 mm 0.00 in0.0 mm 5.73 in145.5 mm
11:00 PM 71.3°F21.8°C 67.0°F19.4°C 86% Calm Calm -- 29.73 in1006.8 mb 0.00 in0.0 mm 0.00 in0.0 mm 23.01 in584.5 mm
11:05 PM 71.3°F21.8°C 67.0°F19.4°C 86% Calm Calm -- 29.73 in1006.8 mb 0.00 in0.0 mm 0.00 in0.0 mm 23.01 in584.5 mm
11:10 PM 71.4°F21.9°C 67.0°F19.4°C 86% Calm Calm -- 29.73 in1006.8 mb 0.00 in0.0 mm 0.00 in0.0 mm 23.01 in584.5 mm
11:15 PM 71.4°F21.9°C 67.0°F19.4°C 86% Calm Calm -- 29.73 in1006.8 mb 0.00 in0.0 mm 0.00 in0.0 mm 23.01 in584.5 mm
11:20 PM 71.4°F21.9°C 67.0°F19.4°C 86% Calm Calm -- 29.73 in1006.8 mb 0.00 in0.0 mm 0.00 in0.0 mm 23.01 in584.5 mm
11:25 PM 71.3°F21.8°C 67.0°F19.4°C 86% Calm Calm -- 29.73 in1006.8 mb 0.00 in0.0 mm 0.00 in0.0 mm 23.01 in584.5 mm
11:30 PM 71.3°F21.8°C 67.0°F19.4°C 86% Calm Calm -- 29.72 in1006.4 mb 0.00 in0.0 mm 0.00 in0.0 mm 23.01 in584.5 mm
11:35 PM 71.3°F21.8°C 67.0°F19.4°C 86% Calm Calm -- 29.72 in1006.4 mb 0.00 in0.0 mm 0.00 in0.0 mm 23.01 in584.5 mm
11:40 PM 71.2°F21.8°C 67.0°F19.4°C 86% Calm Calm -- 29.72 in1006.4 mb 0.00 in0.0 mm 0.00 in0.0 mm 23.01 in584.5 mm
11:45 PM 71.1°F21.7°C 67.0°F19.4°C 86% Calm Calm -- 29.72 in1006.4 mb 0.00 in0.0 mm 0.00 in0.0 mm 23.01 in584.5 mm
11:50 PM 71.1°F21.7°C 67.0°F19.4°C 86% Calm Calm -- 29.72 in1006.4 mb 0.00 in0.0 mm 0.00 in0.0 mm 23.01 in584.5 mm
11:55 PM 71.0°F21.7°C 67.0°F19.4°C 86% Calm Calm -- 29.72 in1006.4 mb 0.00 in0.0 mm 0.00 in0.0 mm 23.01 in584.5 mm